Time,TemperatureF,DewpointF,PressureIn,WindDirection,WindDirectionDegrees,WindSpeedMPH,WindSpeedGustMPH,Humidity,HourlyPrecipIn,Conditions,Clouds,dailyrainin,SoftwareType,DateUTC
2013-04-05 00:00:00,40.8,39.7,29.97,SSE,162,0.0,1.0,96,0.00,,,0.26,meteohub,2013-04-05 04:00:00,
2013-04-05 00:05:00,40.8,39.7,29.97,SSE,162,0.0,1.0,96,0.00,,,0.00,meteohub,2013-04-05 04:05:00,
2013-04-05 00:10:00,40.8,39.7,29.98,WNW,295,0.0,0.0,96,0.00,,,0.00,meteohub,2013-04-05 04:10:00,
2013-04-05 00:16:00,40.8,39.7,29.98,WNW,290,0.0,1.0,96,0.00,,,0.00,meteohub,2013-04-05 04:16:00,
2013-04-05 00:21:00,40.8,39.7,29.98,NNW,330,0.0,1.0,96,0.00,,,0.00,meteohub,2013-04-05 04:21:00,
2013-04-05 00:26:00,40.8,39.7,29.99,West,262,0.0,2.0,96,0.00,,,0.00,meteohub,2013-04-05 04:26:00,
2013-04-05 00:31:00,40.8,39.7,29.99,NW,316,0.0,2.0,96,0.00,,,0.00,meteohub,2013-04-05 04:31:00,
2013-04-05 00:36:00,40.8,39.7,29.99,NW,309,0.0,1.0,96,0.00,,,0.00,meteohub,2013-04-05 04:36:00,
2013-04-05 00:41:00,40.8,39.7,29.99,NNW,345,1.0,1.0,96,0.00,,,0.00,meteohub,2013-04-05 04:41:00,
2013-04-05 00:46:00,40.8,39.7,29.99,North,352,0.0,2.0,96,0.00,,,0.00,meteohub,2013-04-05 04:46:00,
2013-04-05 00:51:00,40.6,39.6,29.99,ESE,120,0.0,2.0,96,0.00,,,0.00,meteohub,2013-04-05 04:51:00,
2013-04-05 00:56:00,40.6,39.4,29.99,West,278,1.0,3.0,95,0.00,,,0.00,meteohub,2013-04-05 04:56:00,
2013-04-05 01:01:00,40.6,39.4,29.98,WSW,245,0.0,3.0,95,0.00,,,0.00,meteohub,2013-04-05 05:01:00,
2013-04-05 01:06:00,40.6,39.4,29.98,NW,309,0.0,3.0,95,0.00,,,0.00,meteohub,2013-04-05 05:06:00,
2013-04-05 01:12:00,40.6,39.4,29.98,NNW,343,1.0,1.0,95,0.00,,,0.00,meteohub,2013-04-05 05:12:00,
2013-04-05 01:17:00,40.5,39.2,29.98,NNW,338,0.0,2.0,95,0.00,,,0.00,meteohub,2013-04-05 05:17:00,
2013-04-05 01:22:00,40.5,39.2,29.98,ENE,72,0.0,2.0,95,0.00,,,0.00,meteohub,2013-04-05 05:22:00,
2013-04-05 01:27:00,40.3,39.0,29.98,NW,325,0.0,1.0,95,0.00,,,0.00,meteohub,2013-04-05 05:27:00,
2013-04-05 01:32:00,40.3,39.0,29.98,NW,322,0.0,3.0,95,0.00,,,0.00,meteohub,2013-04-05 05:32:00,
2013-04-05 01:37:00,40.3,39.0,29.98,WSW,253,0.0,3.0,95,0.00,,,0.00,meteohub,2013-04-05 05:37:00,
2013-04-05 01:42:00,40.3,39.0,29.98,WSW,248,0.0,1.0,95,0.00,,,0.00,meteohub,2013-04-05 05:42:00,
2013-04-05 01:47:00,40.3,39.0,29.98,WSW,248,0.0,1.0,95,0.00,,,0.00,meteohub,2013-04-05 05:47:00,
2013-04-05 01:52:00,40.3,39.0,29.97,WSW,245,0.0,1.0,95,0.00,,,0.00,meteohub,2013-04-05 05:52:00,
2013-04-05 01:57:00,40.3,39.0,29.97,WSW,245,0.0,1.0,95,0.00,,,0.00,meteohub,2013-04-05 05:57:00,
2013-04-05 02:02:00,40.3,39.0,29.97,SW,226,0.0,1.0,95,0.00,,,0.00,meteohub,2013-04-05 06:02:00,
2013-04-05 02:07:00,40.3,39.0,29.98,SSE,167,0.0,1.0,95,0.00,,,0.00,meteohub,2013-04-05 06:07:00,
2013-04-05 02:12:00,40.3,39.0,29.98,SSE,168,0.0,1.0,95,0.00,,,0.00,meteohub,2013-04-05 06:12:00,
2013-04-05 02:17:00,40.3,39.0,29.98,SSE,167,0.0,1.0,95,0.00,,,0.00,meteohub,2013-04-05 06:17:00,
2013-04-05 02:22:00,40.3,39.0,29.98,SSE,167,0.0,1.0,95,0.00,,,0.00,meteohub,2013-04-05 06:22:00,
2013-04-05 02:27:00,40.3,39.0,29.97,South,170,0.0,0.0,95,0.00,,,0.00,meteohub,2013-04-05 06:27:00,
2013-04-05 02:32:00,40.3,39.0,29.97,NNW,332,0.0,0.0,95,0.00,,,0.00,meteohub,2013-04-05 06:32:00,
2013-04-05 02:37:00,40.3,39.0,29.97,NNW,332,0.0,1.0,95,0.00,,,0.00,meteohub,2013-04-05 06:37:00,
2013-04-05 02:42:00,40.3,39.0,29.96,NNW,331,0.0,1.0,95,0.00,,,0.00,meteohub,2013-04-05 06:42:00,
2013-04-05 02:47:00,40.3,39.0,29.96,NNW,331,0.0,1.0,95,0.00,,,0.00,meteohub,2013-04-05 06:47:00,
2013-04-05 02:52:00,40.3,39.0,29.96,NNW,331,0.0,1.0,95,0.00,,,0.00,meteohub,2013-04-05 06:52:00,
2013-04-05 02:57:00,40.3,39.0,29.96,NNW,331,0.0,1.0,95,0.00,,,0.00,meteohub,2013-04-05 06:57:00,
2013-04-05 03:02:00,40.3,39.0,29.96,NNW,331,0.0,1.0,95,0.00,,,0.00,meteohub,2013-04-05 07:02:00,
2013-04-05 03:07:00,40.3,39.0,29.96,NNW,332,0.0,1.0,95,0.00,,,0.00,meteohub,2013-04-05 07:07:00,
2013-04-05 03:12:00,40.3,39.0,29.95,NNW,335,0.0,1.0,95,0.00,,,0.00,meteohub,2013-04-05 07:12:00,
2013-04-05 03:17:00,40.3,39.0,29.94,NNW,338,0.0,1.0,95,0.00,,,0.00,meteohub,2013-04-05 07:17:00,
2013-04-05 03:22:00,40.3,39.0,29.95,NNW,337,0.0,2.0,95,0.00,,,0.00,meteohub,2013-04-05 07:22:00,
2013-04-05 03:27:00,40.3,39.0,29.95,NNW,337,0.0,2.0,95,0.00,,,0.00,meteohub,2013-04-05 07:27:00,
2013-04-05 03:32:00,40.3,39.2,29.95,NNW,338,0.0,0.0,96,0.00,,,0.00,meteohub,2013-04-05 07:32:00,
2013-04-05 03:37:00,40.3,39.2,29.94,NNW,338,0.0,1.0,96,0.00,,,0.00,meteohub,2013-04-05 07:37:00,
2013-04-05 03:42:00,40.3,39.2,29.94,NNW,338,0.0,1.0,96,0.00,,,0.00,meteohub,2013-04-05 07:42:00,
2013-04-05 03:47:00,40.3,39.2,29.94,NNW,337,0.0,1.0,96,0.00,,,0.00,meteohub,2013-04-05 07:47:00,
2013-04-05 03:52:00,40.3,39.2,29.94,NNW,338,0.0,1.0,96,0.00,,,0.00,meteohub,2013-04-05 07:52:00,
2013-04-05 03:57:00,40.3,39.2,29.94,NNW,339,0.0,1.0,96,0.00,,,0.00,meteohub,2013-04-05 07:57:00,
2013-04-05 04:02:00,40.3,39.0,29.94,NNW,338,0.0,1.0,95,0.00,,,0.00,meteohub,2013-04-05 08:02:00,
2013-04-05 04:07:00,40.3,39.2,29.94,NNW,338,0.0,1.0,96,0.00,,,0.00,meteohub,2013-04-05 08:07:00,
2013-04-05 04:12:00,40.3,39.2,29.94,NNW,338,0.0,1.0,96,0.00,,,0.00,meteohub,2013-04-05 08:12:00,
2013-04-05 04:17:00,40.3,39.2,29.94,NNW,338,0.0,1.0,96,0.00,,,0.00,meteohub,2013-04-05 08:17:00,
2013-04-05 04:22:00,40.3,39.2,29.94,NNW,339,0.0,0.0,96,0.00,,,0.00,meteohub,2013-04-05 08:22:00,
2013-04-05 04:27:00,40.3,39.2,29.93,NNW,339,0.0,1.0,96,0.00,,,0.00,meteohub,2013-04-05 08:27:00,
2013-04-05 04:32:00,40.3,39.2,29.93,NNW,337,0.0,1.0,96,0.00,,,0.00,meteohub,2013-04-05 08:32:00,
2013-04-05 04:37:00,40.3,39.2,29.93,NNW,337,0.0,1.0,96,0.00,,,0.00,meteohub,2013-04-05 08:37:00,
2013-04-05 04:42:00,40.3,39.2,29.93,SSW,197,0.0,1.0,96,0.00,,,0.00,meteohub,2013-04-05 08:42:00,
2013-04-05 04:47:00,40.3,39.2,29.93,SSW,198,0.0,1.0,96,0.00,,,0.00,meteohub,2013-04-05 08:47:00,
2013-04-05 04:52:00,40.1,39.0,29.92,WNW,297,1.0,1.0,96,0.00,,,0.00,meteohub,2013-04-05 08:52:00,
2013-04-05 04:57:00,40.1,39.0,29.93,South,190,3.0,3.0,96,0.00,,,0.00,meteohub,2013-04-05 08:57:00,
2013-04-05 05:02:00,40.1,39.0,29.93,SSW,210,1.0,3.0,96,0.00,,,0.00,meteohub,2013-04-05 09:02:00,
2013-04-05 05:08:00,40.1,39.0,29.93,NNW,335,2.0,3.0,96,0.00,,,0.00,meteohub,2013-04-05 09:08:00,
2013-04-05 05:13:00,40.1,39.0,29.92,WSW,239,0.0,3.0,96,0.00,,,0.00,meteohub,2013-04-05 09:13:00,
2013-04-05 05:18:00,40.3,39.6,29.92,South,181,1.0,3.0,97,0.00,,,0.00,meteohub,2013-04-05 09:18:00,
2013-04-05 05:23:00,40.3,39.6,29.92,South,176,0.0,3.0,97,0.00,,,0.00,meteohub,2013-04-05 09:23:00,
2013-04-05 05:28:00,40.3,39.6,29.92,South,177,0.0,2.0,97,0.00,,,0.00,meteohub,2013-04-05 09:28:00,
2013-04-05 05:33:00,40.5,39.7,29.92,South,177,0.0,2.0,97,0.00,,,0.00,meteohub,2013-04-05 09:33:00,
2013-04-05 05:38:00,40.5,39.7,29.93,South,184,0.0,2.0,97,0.00,,,0.00,meteohub,2013-04-05 09:38:00,
2013-04-05 05:43:00,40.6,39.9,29.93,SSE,163,0.0,1.0,97,0.00,,,0.00,meteohub,2013-04-05 09:43:00,
2013-04-05 05:48:00,40.6,39.9,29.93,SSE,163,0.0,2.0,97,0.00,,,0.00,meteohub,2013-04-05 09:48:00,
2013-04-05 05:51:00,40.6,39.9,29.93,SSE,163,0.0,2.0,97,0.00,,,0.00,meteohub,2013-04-05 09:51:00,
2013-04-05 05:57:00,40.6,39.9,29.94,SSE,163,0.0,2.0,97,0.00,,,0.00,meteohub,2013-04-05 09:57:00,
2013-04-05 06:02:00,40.8,40.1,29.94,SSE,162,0.0,1.0,97,0.00,,,0.00,meteohub,2013-04-05 10:02:00,
2013-04-05 06:07:00,40.8,40.1,29.94,SSE,163,0.0,1.0,97,0.00,,,0.00,meteohub,2013-04-05 10:07:00,
2013-04-05 06:12:00,40.8,40.1,29.94,SSE,163,0.0,1.0,97,0.00,,,0.00,meteohub,2013-04-05 10:12:00,
2013-04-05 06:17:00,41.0,40.3,29.94,SSE,162,0.0,1.0,97,0.00,,,0.00,meteohub,2013-04-05 10:17:00,
2013-04-05 06:22:00,41.2,40.5,29.94,SSE,164,1.0,1.0,97,0.00,,,0.00,meteohub,2013-04-05 10:22:00,
2013-04-05 06:27:00,41.2,40.5,29.94,SSE,168,0.0,1.0,97,0.00,,,0.00,meteohub,2013-04-05 10:27:00,
2013-04-05 06:32:00,41.2,40.5,29.95,SSE,167,0.0,3.0,97,0.00,,,0.00,meteohub,2013-04-05 10:32:00,
2013-04-05 06:37:00,41.4,40.6,29.95,SSE,167,0.0,3.0,97,0.00,,,0.00,meteohub,2013-04-05 10:37:00,
2013-04-05 06:42:00,41.4,40.6,29.95,South,176,0.0,1.0,97,0.00,,,0.00,meteohub,2013-04-05 10:42:00,
2013-04-05 06:47:00,41.4,40.6,29.95,South,176,0.0,1.0,97,0.00,,,0.00,meteohub,2013-04-05 10:47:00,
2013-04-05 06:52:00,41.5,40.8,29.95,South,174,0.0,1.0,97,0.00,,,0.00,meteohub,2013-04-05 10:52:00,
2013-04-05 06:57:00,41.5,40.8,29.95,South,174,0.0,1.0,97,0.00,,,0.00,meteohub,2013-04-05 10:57:00,
2013-04-05 07:02:00,41.5,40.8,29.95,South,183,0.0,1.0,97,0.00,,,0.00,meteohub,2013-04-05 11:02:00,
2013-04-05 07:07:00,41.5,40.8,29.95,South,170,0.0,1.0,97,0.00,,,0.00,meteohub,2013-04-05 11:07:00,
2013-04-05 07:12:00,41.4,40.6,29.95,South,170,0.0,1.0,97,0.00,,,0.00,meteohub,2013-04-05 11:12:00,
2013-04-05 07:17:00,41.4,40.6,29.95,South,170,0.0,1.0,97,0.00,,,0.00,meteohub,2013-04-05 11:17:00,
2013-04-05 07:22:00,41.4,40.6,29.95,South,170,0.0,1.0,97,0.00,,,0.00,meteohub,2013-04-05 11:22:00,
2013-04-05 07:28:00,41.4,40.6,29.96,South,170,0.0,0.0,97,0.00,,,0.00,meteohub,2013-04-05 11:28:00,
2013-04-05 07:33:00,41.4,40.6,29.95,South,170,0.0,1.0,97,0.00,,,0.00,meteohub,2013-04-05 11:33:00,
2013-04-05 07:37:00,41.4,40.6,29.95,SSE,165,1.0,1.0,97,0.00,,,0.00,meteohub,2013-04-05 11:37:00,
2013-04-05 07:42:00,41.4,40.6,29.95,South,190,0.0,2.0,97,0.00,,,0.00,meteohub,2013-04-05 11:42:00,
2013-04-05 07:48:00,41.5,40.8,29.96,NNW,335,0.0,2.0,97,0.00,,,0.00,meteohub,2013-04-05 11:48:00,
2013-04-05 07:53:00,41.5,40.8,29.96,SW,222,0.0,2.0,97,0.00,,,0.00,meteohub,2013-04-05 11:53:00,
2013-04-05 07:58:00,41.5,40.8,29.96,SW,220,1.0,1.0,97,0.00,,,0.00,meteohub,2013-04-05 11:58:00,
2013-04-05 08:03:00,41.5,40.8,29.96,SSE,165,0.0,1.0,97,0.00,,,0.00,meteohub,2013-04-05 12:03:00,
2013-04-05 08:08:00,41.5,40.8,29.96,South,184,0.0,1.0,97,0.00,,,0.00,meteohub,2013-04-05 12:08:00,
2013-04-05 08:13:00,41.5,40.8,29.96,South,183,0.0,1.0,97,0.00,,,0.00,meteohub,2013-04-05 12:13:00,
2013-04-05 08:18:00,41.5,40.8,29.96,West,280,0.0,1.0,97,0.00,,,0.00,meteohub,2013-04-05 12:18:00,
2013-04-05 08:23:00,41.5,40.8,29.96,WNW,284,0.0,1.0,97,0.00,,,0.00,meteohub,2013-04-05 12:23:00,
2013-04-05 08:29:00,41.7,41.0,29.96,WNW,284,0.0,1.0,97,0.00,,,0.00,meteohub,2013-04-05 12:29:00,
2013-04-05 08:34:00,41.7,41.0,29.96,WNW,284,0.0,1.0,97,0.00,,,0.00,meteohub,2013-04-05 12:34:00,
2013-04-05 08:39:00,42.1,41.4,29.96,WNW,284,0.0,1.0,97,0.00,,,0.00,meteohub,2013-04-05 12:39:00,
2013-04-05 08:44:00,42.3,41.5,29.96,WNW,284,0.0,1.0,97,0.00,,,0.00,meteohub,2013-04-05 12:44:00,
2013-04-05 08:49:00,42.4,41.7,29.96,WNW,284,0.0,1.0,97,0.00,,,0.00,meteohub,2013-04-05 12:49:00,
2013-04-05 08:54:00,42.6,41.9,29.96,WNW,284,0.0,1.0,97,0.00,,,0.00,meteohub,2013-04-05 12:54:00,
2013-04-05 08:59:00,43.2,42.6,29.96,WNW,297,0.0,1.0,98,0.00,,,0.00,meteohub,2013-04-05 12:59:00,
2013-04-05 09:04:00,43.5,43.0,29.96,WNW,297,0.0,1.0,98,0.00,,,0.00,meteohub,2013-04-05 13:04:00,
2013-04-05 09:09:00,43.9,43.3,29.96,NW,319,0.0,1.0,98,0.00,,,0.00,meteohub,2013-04-05 13:09:00,
2013-04-05 09:14:00,44.4,43.7,29.96,WNW,300,0.0,1.0,97,0.00,,,0.00,meteohub,2013-04-05 13:14:00,
2013-04-05 09:19:00,45.0,43.9,29.96,NE,39,2.0,2.0,96,0.00,,,0.00,meteohub,2013-04-05 13:19:00,
2013-04-05 09:24:00,45.3,43.7,29.96,NW,319,0.0,2.0,94,0.00,,,0.00,meteohub,2013-04-05 13:24:00,
2013-04-05 09:30:00,46.0,44.1,29.97,NW,305,1.0,3.0,93,0.00,,,0.00,meteohub,2013-04-05 13:30:00,
2013-04-05 09:34:00,46.4,43.9,29.97,North,352,0.0,3.0,91,0.00,,,0.00,meteohub,2013-04-05 13:34:00,
2013-04-05 09:40:00,46.8,44.1,29.97,WSW,245,0.0,3.0,90,0.00,,,0.00,meteohub,2013-04-05 13:40:00,
2013-04-05 09:45:00,46.9,44.2,29.97,SE,128,1.0,3.0,90,0.00,,,0.00,meteohub,2013-04-05 13:45:00,
2013-04-05 09:50:00,47.5,44.8,29.97,SE,131,0.0,3.0,90,0.00,,,0.00,meteohub,2013-04-05 13:50:00,
2013-04-05 09:55:00,47.8,44.4,29.97,SSE,159,0.0,2.0,88,0.00,,,0.00,meteohub,2013-04-05 13:55:00,
2013-04-05 10:00:00,48.0,44.4,29.97,WNW,285,0.0,1.0,87,0.00,,,0.00,meteohub,2013-04-05 14:00:00,
2013-04-05 10:05:00,48.4,44.8,29.97,West,264,0.0,2.0,87,0.00,,,0.00,meteohub,2013-04-05 14:05:00,
2013-04-05 10:10:00,48.6,44.6,29.97,ENE,75,0.0,2.0,86,0.00,,,0.00,meteohub,2013-04-05 14:10:00,
2013-04-05 10:15:00,48.9,45.1,29.98,West,259,0.0,1.0,87,0.00,,,0.00,meteohub,2013-04-05 14:15:00,
2013-04-05 10:20:00,49.3,45.0,29.98,ENE,77,0.0,1.0,85,0.00,,,0.00,meteohub,2013-04-05 14:20:00,
2013-04-05 10:25:00,49.6,45.3,29.98,NNW,331,1.0,3.0,85,0.00,,,0.00,meteohub,2013-04-05 14:25:00,
2013-04-05 10:30:00,50.2,45.1,29.98,NNW,348,3.0,3.0,83,0.00,,,0.00,meteohub,2013-04-05 14:30:00,
2013-04-05 10:36:00,50.5,45.5,29.98,South,181,0.0,3.0,83,0.00,,,0.00,meteohub,2013-04-05 14:36:00,
2013-04-05 10:42:00,50.9,45.3,29.99,NW,306,0.0,3.0,81,0.00,,,0.00,meteohub,2013-04-05 14:42:00,
2013-04-05 10:47:00,51.3,45.7,29.99,ESE,102,0.0,3.0,81,0.00,,,0.00,meteohub,2013-04-05 14:47:00,
2013-04-05 10:52:00,51.6,46.6,29.99,NNW,335,1.0,3.0,83,0.00,,,0.00,meteohub,2013-04-05 14:52:00,
2013-04-05 10:57:00,52.0,45.7,29.99,North,352,0.0,3.0,79,0.00,,,0.00,meteohub,2013-04-05 14:57:00,
2013-04-05 11:02:00,52.3,46.0,29.99,NNE,18,0.0,3.0,79,0.00,,,0.00,meteohub,2013-04-05 15:02:00,
2013-04-05 11:07:00,52.7,45.3,30.00,WNW,302,1.0,6.0,76,0.00,,,0.00,meteohub,2013-04-05 15:07:00,
2013-04-05 11:12:00,52.9,46.2,30.00,NW,318,0.0,6.0,78,0.00,,,0.00,meteohub,2013-04-05 15:12:00,
2013-04-05 11:17:00,53.2,46.6,29.99,WSW,252,0.0,6.0,78,0.00,,,0.00,meteohub,2013-04-05 15:17:00,
2013-04-05 11:22:00,54.1,47.5,29.99,SW,231,1.0,2.0,78,0.00,,,0.00,meteohub,2013-04-05 15:22:00,
2013-04-05 11:27:00,54.3,47.7,29.99,West,266,1.0,2.0,78,0.00,,,0.00,meteohub,2013-04-05 15:27:00,
2013-04-05 11:32:00,54.5,47.8,30.00,NNW,336,0.0,3.0,78,0.00,,,0.00,meteohub,2013-04-05 15:32:00,
2013-04-05 11:37:00,54.7,48.0,30.00,West,273,0.0,3.0,78,0.00,,,0.00,meteohub,2013-04-05 15:37:00,
2013-04-05 11:42:00,54.7,48.0,30.00,West,274,0.0,2.0,78,0.00,,,0.00,meteohub,2013-04-05 15:42:00,
2013-04-05 11:47:00,54.1,47.5,30.00,WNW,288,1.0,2.0,78,0.00,,,0.00,meteohub,2013-04-05 15:47:00,
2013-04-05 11:53:00,53.8,47.1,30.01,WNW,302,0.0,2.0,78,0.00,,,0.00,meteohub,2013-04-05 15:53:00,
2013-04-05 11:57:00,53.8,47.5,30.00,WNW,283,0.0,2.0,79,0.00,,,0.00,meteohub,2013-04-05 15:57:00,
2013-04-05 12:03:00,54.0,47.7,30.01,NNW,328,1.0,2.0,79,0.00,,,0.00,meteohub,2013-04-05 16:03:00,
2013-04-05 12:08:00,54.1,47.8,30.01,West,274,0.0,2.0,79,0.00,,,0.00,meteohub,2013-04-05 16:08:00,
2013-04-05 12:13:00,54.5,48.2,30.01,NW,316,1.0,2.0,79,0.00,,,0.00,meteohub,2013-04-05 16:13:00,
2013-04-05 12:18:00,54.9,47.8,30.01,NW,324,0.0,2.0,77,0.00,,,0.00,meteohub,2013-04-05 16:18:00,
2013-04-05 12:23:00,54.9,47.5,30.01,NNW,347,2.0,2.0,76,0.00,,,0.00,meteohub,2013-04-05 16:23:00,
2013-04-05 12:28:00,54.9,47.8,30.01,WNW,299,0.0,3.0,77,0.00,,,0.00,meteohub,2013-04-05 16:28:00,
2013-04-05 12:33:00,55.0,48.0,30.00,West,278,1.0,3.0,77,0.00,,,0.00,meteohub,2013-04-05 16:33:00,
2013-04-05 12:38:00,55.4,48.0,30.00,NNW,345,1.0,3.0,76,0.00,,,0.00,meteohub,2013-04-05 16:38:00,
2013-04-05 12:43:00,55.8,48.0,30.00,WNW,285,0.0,2.0,75,0.00,,,0.00,meteohub,2013-04-05 16:43:00,
2013-04-05 12:48:00,56.1,47.7,30.00,SE,133,0.0,2.0,73,0.00,,,0.00,meteohub,2013-04-05 16:48:00,
2013-04-05 12:53:00,56.7,47.7,30.00,SSE,155,1.0,2.0,72,0.00,,,0.00,meteohub,2013-04-05 16:53:00,
2013-04-05 12:58:00,57.6,47.8,30.00,NNW,328,1.0,2.0,70,0.00,,,0.00,meteohub,2013-04-05 16:58:00,
2013-04-05 13:03:00,57.7,47.3,29.99,West,273,0.0,3.0,68,0.00,,,0.00,meteohub,2013-04-05 17:03:00,
2013-04-05 13:08:00,57.9,46.9,29.99,SW,232,0.0,3.0,67,0.00,,,0.00,meteohub,2013-04-05 17:08:00,
2013-04-05 13:13:00,58.6,49.3,29.99,West,266,0.0,3.0,71,0.00,,,0.00,meteohub,2013-04-05 17:13:00,
2013-04-05 13:18:00,59.5,47.8,29.99,SSE,155,0.0,2.0,65,0.00,,,0.00,meteohub,2013-04-05 17:18:00,
2013-04-05 13:23:00,60.1,48.7,29.99,NW,321,0.0,2.0,66,0.00,,,0.00,meteohub,2013-04-05 17:23:00,
2013-04-05 13:28:00,60.6,48.0,29.99,SSW,195,2.0,2.0,63,0.00,,,0.00,meteohub,2013-04-05 17:28:00,
2013-04-05 13:33:00,61.2,48.4,29.99,NE,50,0.0,2.0,63,0.00,,,0.00,meteohub,2013-04-05 17:33:00,
2013-04-05 13:38:00,61.5,46.6,29.99,South,181,2.0,4.0,58,0.00,,,0.00,meteohub,2013-04-05 17:38:00,
2013-04-05 13:43:00,61.2,46.2,29.98,West,260,0.0,5.0,58,0.00,,,0.00,meteohub,2013-04-05 17:43:00,
2013-04-05 13:48:00,60.6,45.3,29.98,SSE,160,2.0,5.0,57,0.00,,,0.00,meteohub,2013-04-05 17:48:00,
2013-04-05 13:53:00,60.4,46.0,29.98,SSE,165,1.0,5.0,59,0.00,,,0.00,meteohub,2013-04-05 17:53:00,
2013-04-05 13:58:00,60.6,45.7,29.98,NNW,340,1.0,4.0,58,0.00,,,0.00,meteohub,2013-04-05 17:58:00,
2013-04-05 14:04:00,60.3,45.5,29.98,NE,35,0.0,4.0,58,0.00,,,0.00,meteohub,2013-04-05 18:04:00,
2013-04-05 14:09:00,60.8,45.9,29.98,SSW,200,2.0,2.0,58,0.00,,,0.00,meteohub,2013-04-05 18:09:00,
2013-04-05 14:14:00,61.3,46.9,29.98,SW,232,0.0,2.0,59,0.00,,,0.00,meteohub,2013-04-05 18:14:00,
2013-04-05 14:19:00,61.5,45.1,29.98,SSW,212,0.0,3.0,55,0.00,,,0.00,meteohub,2013-04-05 18:19:00,
2013-04-05 14:25:00,61.3,46.0,29.98,NNE,25,0.0,3.0,57,0.00,,,0.00,meteohub,2013-04-05 18:25:00,
2013-04-05 14:30:00,61.7,46.8,29.97,SSW,203,0.0,3.0,58,0.00,,,0.00,meteohub,2013-04-05 18:30:00,
2013-04-05 14:35:00,62.2,48.6,29.97,South,172,3.0,3.0,61,0.00,,,0.00,meteohub,2013-04-05 18:35:00,
2013-04-05 14:40:00,62.6,46.2,29.97,NNW,333,1.0,3.0,55,0.00,,,0.00,meteohub,2013-04-05 18:40:00,
2013-04-05 14:45:00,62.8,46.4,29.96,SE,139,0.0,4.0,55,0.00,,,0.00,meteohub,2013-04-05 18:45:00,
2013-04-05 14:50:00,62.8,45.9,29.97,North,349,1.0,4.0,54,0.00,,,0.00,meteohub,2013-04-05 18:50:00,
2013-04-05 14:55:00,62.4,47.5,29.96,SW,224,0.0,4.0,58,0.00,,,0.00,meteohub,2013-04-05 18:55:00,
2013-04-05 15:00:00,62.8,47.8,29.96,SSW,194,1.0,4.0,58,0.00,,,0.00,meteohub,2013-04-05 19:00:00,
2013-04-05 15:05:00,63.1,47.1,29.96,NNE,33,0.0,3.0,56,0.00,,,0.00,meteohub,2013-04-05 19:05:00,
2013-04-05 15:10:00,63.9,47.8,29.96,South,175,1.0,4.0,56,0.00,,,0.00,meteohub,2013-04-05 19:10:00,
2013-04-05 15:15:00,64.6,47.5,29.96,West,260,0.0,4.0,54,0.00,,,0.00,meteohub,2013-04-05 19:15:00,
2013-04-05 15:20:00,64.8,48.2,29.96,WSW,238,1.0,4.0,55,0.00,,,0.00,meteohub,2013-04-05 19:20:00,
2013-04-05 15:25:00,65.1,48.0,29.95,SW,235,1.0,4.0,54,0.00,,,0.00,meteohub,2013-04-05 19:25:00,
2013-04-05 15:30:00,65.5,47.5,29.95,SSE,165,1.0,3.0,52,0.00,,,0.00,meteohub,2013-04-05 19:30:00,
2013-04-05 15:36:00,66.0,48.4,29.95,NNW,335,1.0,3.0,53,0.00,,,0.00,meteohub,2013-04-05 19:36:00,
2013-04-05 15:41:00,66.4,47.7,29.94,WSW,255,0.0,3.0,51,0.00,,,0.00,meteohub,2013-04-05 19:41:00,
2013-04-05 15:46:00,66.4,47.1,29.94,NW,323,1.0,3.0,50,0.00,,,0.00,meteohub,2013-04-05 19:46:00,
2013-04-05 15:51:00,66.2,47.5,29.94,SW,215,2.0,3.0,51,0.00,,,0.00,meteohub,2013-04-05 19:51:00,
2013-04-05 15:56:00,66.4,48.7,29.94,NW,318,1.0,3.0,53,0.00,,,0.00,meteohub,2013-04-05 19:56:00,
2013-04-05 16:01:00,66.2,46.4,29.94,SW,232,1.0,3.0,49,0.00,,,0.00,meteohub,2013-04-05 20:01:00,
2013-04-05 16:07:00,65.5,46.4,29.94,West,281,0.0,3.0,50,0.00,,,0.00,meteohub,2013-04-05 20:07:00,
2013-04-05 16:12:00,65.3,46.2,29.94,WSW,242,1.0,3.0,50,0.00,,,0.00,meteohub,2013-04-05 20:12:00,
2013-04-05 16:17:00,65.5,47.8,29.93,West,281,1.0,3.0,53,0.00,,,0.00,meteohub,2013-04-05 20:17:00,
2013-04-05 16:22:00,65.8,46.2,29.93,WNW,287,1.0,5.0,49,0.00,,,0.00,meteohub,2013-04-05 20:22:00,
2013-04-05 16:27:00,65.8,46.2,29.93,SSW,212,0.0,5.0,49,0.00,,,0.00,meteohub,2013-04-05 20:27:00,
2013-04-05 16:32:00,66.0,46.8,29.93,NW,309,0.0,4.0,50,0.00,,,0.00,meteohub,2013-04-05 20:32:00,
2013-04-05 16:37:00,66.2,45.9,29.93,NNE,21,2.0,4.0,48,0.00,,,0.00,meteohub,2013-04-05 20:37:00,
2013-04-05 16:42:00,66.2,46.4,29.93,ESE,123,1.0,3.0,49,0.00,,,0.00,meteohub,2013-04-05 20:42:00,
2013-04-05 16:47:00,66.4,47.1,29.93,West,274,1.0,5.0,50,0.00,,,0.00,meteohub,2013-04-05 20:47:00,
2013-04-05 16:52:00,66.6,45.7,29.93,NW,304,1.0,5.0,47,0.00,,,0.00,meteohub,2013-04-05 20:52:00,
2013-04-05 16:57:00,66.4,45.5,29.93,SSW,212,0.0,5.0,47,0.00,,,0.00,meteohub,2013-04-05 20:57:00,
2013-04-05 17:02:00,66.4,45.0,29.93,South,172,2.0,3.0,46,0.00,,,0.00,meteohub,2013-04-05 21:02:00,
2013-04-05 17:07:00,66.0,44.6,29.93,SSW,210,2.0,5.0,46,0.00,,,0.00,meteohub,2013-04-05 21:07:00,
2013-04-05 17:12:00,66.4,44.4,29.93,South,176,2.0,5.0,45,0.00,,,0.00,meteohub,2013-04-05 21:12:00,
2013-04-05 17:17:00,66.4,45.0,29.93,SW,229,1.0,6.0,46,0.00,,,0.00,meteohub,2013-04-05 21:17:00,
2013-04-05 17:22:00,66.6,44.1,29.93,SSE,167,2.0,6.0,44,0.00,,,0.00,meteohub,2013-04-05 21:22:00,
2013-04-05 17:27:00,66.9,43.7,29.92,South,187,0.0,6.0,43,0.00,,,0.00,meteohub,2013-04-05 21:27:00,
2013-04-05 17:32:00,66.7,44.1,29.93,SE,143,2.0,5.0,44,0.00,,,0.00,meteohub,2013-04-05 21:32:00,
2013-04-05 17:38:00,66.9,43.7,29.93,SE,139,1.0,5.0,43,0.00,,,0.00,meteohub,2013-04-05 21:38:00,
2013-04-05 17:43:00,67.1,42.6,29.93,NW,321,0.0,5.0,41,0.00,,,0.00,meteohub,2013-04-05 21:43:00,
2013-04-05 17:48:00,66.9,41.9,29.93,South,179,4.0,4.0,40,0.00,,,0.00,meteohub,2013-04-05 21:48:00,
2013-04-05 17:53:00,67.1,36.3,29.93,NNW,341,0.0,3.0,32,0.00,,,0.00,meteohub,2013-04-05 21:53:00,
2013-04-05 17:58:00,67.5,34.9,29.93,NW,307,1.0,5.0,30,0.00,,,0.00,meteohub,2013-04-05 21:58:00,
2013-04-05 18:03:00,68.2,35.6,29.93,WSW,248,1.0,5.0,30,0.00,,,0.00,meteohub,2013-04-05 22:03:00,
2013-04-05 18:08:00,68.2,33.8,29.93,South,179,4.0,4.0,28,0.00,,,0.00,meteohub,2013-04-05 22:08:00,
2013-04-05 18:13:00,68.0,33.6,29.93,WSW,245,1.0,6.0,28,0.00,,,0.00,meteohub,2013-04-05 22:13:00,
2013-04-05 18:18:00,68.0,37.0,29.94,WSW,248,1.0,6.0,32,0.00,,,0.00,meteohub,2013-04-05 22:18:00,
2013-04-05 18:23:00,67.8,38.5,29.94,WSW,245,2.0,6.0,34,0.00,,,0.00,meteohub,2013-04-05 22:23:00,
2013-04-05 18:28:00,67.1,38.5,29.94,SSE,152,3.0,6.0,35,0.00,,,0.00,meteohub,2013-04-05 22:28:00,
2013-04-05 18:33:00,66.7,38.3,29.94,North,349,3.0,11.0,35,0.00,,,0.00,meteohub,2013-04-05 22:33:00,
2013-04-05 18:38:00,66.6,37.4,29.95,NNW,341,4.0,11.0,34,0.00,,,0.00,meteohub,2013-04-05 22:38:00,
2013-04-05 18:44:00,66.4,37.9,29.94,South,183,3.0,11.0,35,0.00,,,0.00,meteohub,2013-04-05 22:44:00,
2013-04-05 18:49:00,66.4,37.2,29.94,South,169,1.0,5.0,34,0.00,,,0.00,meteohub,2013-04-05 22:49:00,
2013-04-05 18:54:00,66.4,36.3,29.95,WNW,283,2.0,5.0,33,0.00,,,0.00,meteohub,2013-04-05 22:54:00,
2013-04-05 18:59:00,66.2,37.0,29.95,SSE,162,3.0,6.0,34,0.00,,,0.00,meteohub,2013-04-05 22:59:00,
2013-04-05 19:04:00,65.7,35.8,29.95,West,259,3.0,6.0,33,0.00,,,0.00,meteohub,2013-04-05 23:04:00,
2013-04-05 19:09:00,65.1,36.9,29.96,SSW,203,3.0,6.0,35,0.00,,,0.00,meteohub,2013-04-05 23:09:00,
2013-04-05 19:14:00,64.8,35.1,29.96,WNW,283,2.0,6.0,33,0.00,,,0.00,meteohub,2013-04-05 23:14:00,
2013-04-05 19:19:00,64.4,35.4,29.96,West,278,2.0,6.0,34,0.00,,,0.00,meteohub,2013-04-05 23:19:00,
2013-04-05 19:24:00,63.9,36.3,29.96,NW,320,1.0,7.0,36,0.00,,,0.00,meteohub,2013-04-05 23:24:00,
2013-04-05 19:29:00,63.3,36.7,29.96,SSW,209,1.0,7.0,37,0.00,,,0.00,meteohub,2013-04-05 23:29:00,
2013-04-05 19:35:00,63.0,35.6,29.96,North,6,3.0,7.0,36,0.00,,,0.00,meteohub,2013-04-05 23:35:00,
2013-04-05 19:40:00,62.4,36.5,29.97,SSE,160,1.0,7.0,38,0.00,,,0.00,meteohub,2013-04-05 23:40:00,
2013-04-05 19:45:00,62.1,36.1,29.97,WSW,257,1.0,7.0,38,0.00,,,0.00,meteohub,2013-04-05 23:45:00,
2013-04-05 19:50:00,61.7,35.8,29.97,WNW,287,4.0,6.0,38,0.00,,,0.00,meteohub,2013-04-05 23:50:00,
2013-04-05 19:55:00,61.3,36.1,29.98,NNE,13,1.0,6.0,39,0.00,,,0.00,meteohub,2013-04-05 23:55:00,
2013-04-05 20:00:00,61.2,36.7,29.98,NNW,338,2.0,5.0,40,0.00,,,0.00,meteohub,2013-04-06 00:00:00,
2013-04-05 20:05:00,60.8,36.9,29.98,WNW,297,1.0,5.0,41,0.00,,,0.00,meteohub,2013-04-06 00:05:00,
2013-04-05 20:10:00,60.4,36.7,29.98,SE,145,2.0,4.0,41,0.00,,,0.00,meteohub,2013-04-06 00:10:00,
2013-04-05 20:15:00,60.3,37.0,29.99,WNW,300,1.0,4.0,42,0.00,,,0.00,meteohub,2013-04-06 00:15:00,
2013-04-05 20:20:00,59.9,36.7,29.99,WSW,248,0.0,4.0,42,0.00,,,0.00,meteohub,2013-04-06 00:20:00,
2013-04-05 20:25:00,59.5,37.0,29.99,WSW,240,0.0,4.0,43,0.00,,,0.00,meteohub,2013-04-06 00:25:00,
2013-04-05 20:30:00,59.4,37.4,29.99,North,8,1.0,4.0,44,0.00,,,0.00,meteohub,2013-04-06 00:30:00,
2013-04-05 20:35:00,59.2,37.9,29.99,North,351,2.0,4.0,45,0.00,,,0.00,meteohub,2013-04-06 00:35:00,
2013-04-05 20:40:00,58.8,38.1,29.99,NW,314,2.0,4.0,46,0.00,,,0.00,meteohub,2013-04-06 00:40:00,
2013-04-05 20:45:00,58.5,37.8,30.00,NW,311,1.0,4.0,46,0.00,,,0.00,meteohub,2013-04-06 00:45:00,
2013-04-05 20:50:00,58.3,38.1,30.00,SW,226,0.0,4.0,47,0.00,,,0.00,meteohub,2013-04-06 00:50:00,
2013-04-05 20:55:00,57.9,37.8,30.00,WSW,255,1.0,3.0,47,0.00,,,0.00,meteohub,2013-04-06 00:55:00,
2013-04-05 21:00:00,57.7,37.6,30.00,NNE,23,0.0,3.0,47,0.00,,,0.00,meteohub,2013-04-06 01:00:00,
2013-04-05 21:05:00,57.7,37.6,30.00,WSW,250,1.0,5.0,47,0.00,,,0.00,meteohub,2013-04-06 01:05:00,
2013-04-05 21:10:00,57.9,37.8,30.00,NW,309,2.0,5.0,47,0.00,,,0.00,meteohub,2013-04-06 01:10:00,
2013-04-05 21:15:00,57.9,37.8,30.01,NNW,329,1.0,5.0,47,0.00,,,0.00,meteohub,2013-04-06 01:15:00,
2013-04-05 21:20:00,57.7,37.6,30.01,NNW,334,0.0,5.0,47,0.00,,,0.00,meteohub,2013-04-06 01:20:00,
2013-04-05 21:25:00,57.6,37.9,30.01,North,5,0.0,4.0,48,0.00,,,0.00,meteohub,2013-04-06 01:25:00,
2013-04-05 21:30:00,57.4,37.9,30.01,WNW,302,2.0,3.0,48,0.00,,,0.00,meteohub,2013-04-06 01:30:00,
2013-04-05 21:35:00,57.4,37.9,30.01,NNW,339,0.0,3.0,48,0.00,,,0.00,meteohub,2013-04-06 01:35:00,
2013-04-05 21:40:00,57.0,37.6,30.01,WNW,288,1.0,3.0,48,0.00,,,0.00,meteohub,2013-04-06 01:40:00,
2013-04-05 21:46:00,56.8,37.4,30.01,NW,315,1.0,2.0,48,0.00,,,0.00,meteohub,2013-04-06 01:46:00,
2013-04-05 21:51:00,56.7,37.8,30.01,West,269,0.0,3.0,49,0.00,,,0.00,meteohub,2013-04-06 01:51:00,
2013-04-05 21:56:00,56.5,38.1,30.01,North,352,1.0,3.0,50,0.00,,,0.00,meteohub,2013-04-06 01:56:00,
2013-04-05 22:01:00,56.1,37.2,30.02,WNW,295,0.0,3.0,49,0.00,,,0.00,meteohub,2013-04-06 02:01:00,
2013-04-05 22:06:00,55.9,37.6,30.02,NW,305,0.0,2.0,50,0.00,,,0.00,meteohub,2013-04-06 02:06:00,
2013-04-05 22:11:00,55.8,37.4,30.02,NW,305,0.0,2.0,50,0.00,,,0.00,meteohub,2013-04-06 02:11:00,
2013-04-05 22:16:00,55.6,37.2,30.03,NW,304,0.0,1.0,50,0.00,,,0.00,meteohub,2013-04-06 02:16:00,
2013-04-05 22:21:00,55.0,36.7,30.03,NW,305,0.0,1.0,50,0.00,,,0.00,meteohub,2013-04-06 02:21:00,
2013-04-05 22:27:00,54.7,37.9,30.03,NW,305,0.0,0.0,53,0.00,,,0.00,meteohub,2013-04-06 02:27:00,
2013-04-05 22:32:00,54.1,37.9,30.03,NW,305,0.0,0.0,54,0.00,,,0.00,meteohub,2013-04-06 02:32:00,
2013-04-05 22:37:00,53.8,37.0,30.03,NW,305,0.0,0.0,53,0.00,,,0.00,meteohub,2013-04-06 02:37:00,
2013-04-05 22:42:00,53.4,37.2,30.03,NW,304,0.0,0.0,54,0.00,,,0.00,meteohub,2013-04-06 02:42:00,
2013-04-05 22:47:00,53.2,36.5,30.04,NW,307,0.0,1.0,53,0.00,,,0.00,meteohub,2013-04-06 02:47:00,
2013-04-05 22:52:00,53.4,37.6,30.03,NW,307,1.0,1.0,55,0.00,,,0.00,meteohub,2013-04-06 02:52:00,
2013-04-05 22:57:00,53.2,37.4,30.03,WNW,297,0.0,1.0,55,0.00,,,0.00,meteohub,2013-04-06 02:57:00,
2013-04-05 23:02:00,53.1,37.4,30.03,WNW,299,0.0,1.0,55,0.00,,,0.00,meteohub,2013-04-06 03:02:00,
2013-04-05 23:07:00,53.1,37.4,30.04,WNW,285,0.0,1.0,55,0.00,,,0.00,meteohub,2013-04-06 03:07:00,
2013-04-05 23:12:00,52.9,37.2,30.04,WNW,285,0.0,1.0,55,0.00,,,0.00,meteohub,2013-04-06 03:12:00,
2013-04-05 23:17:00,52.7,37.0,30.04,WNW,285,0.0,1.0,55,0.00,,,0.00,meteohub,2013-04-06 03:17:00,
2013-04-05 23:22:00,52.3,37.0,30.04,WNW,285,0.0,1.0,56,0.00,,,0.00,meteohub,2013-04-06 03:22:00,
2013-04-05 23:28:00,52.0,36.9,30.04,WNW,285,0.0,1.0,56,0.00,,,0.00,meteohub,2013-04-06 03:28:00,
2013-04-05 23:33:00,52.0,36.9,30.04,WNW,288,0.0,1.0,56,0.00,,,0.00,meteohub,2013-04-06 03:33:00,
2013-04-05 23:38:00,52.2,36.9,30.04,SE,132,0.0,1.0,56,0.00,,,0.00,meteohub,2013-04-06 03:38:00,
2013-04-05 23:43:00,52.3,36.7,30.04,North,4,1.0,1.0,55,0.00,,,0.00,meteohub,2013-04-06 03:43:00,
2013-04-05 23:48:00,52.3,36.7,30.04,North,4,0.0,1.0,55,0.00,,,0.00,meteohub,2013-04-06 03:48:00,
2013-04-05 23:53:00,52.3,37.0,30.04,North,4,0.0,1.0,56,0.00,,,0.00,meteohub,2013-04-06 03:53:00,
2013-04-05 23:58:00,52.5,37.2,30.04,WNW,288,0.0,1.0,56,0.00,,,0.00,meteohub,2013-04-06 03:58:00,